Archival Weather

Joint Base Andrews

Camp Springs, Maryland (KADW)

Report from: Tuesday, February 27, 2024 4:55 PM EST
Current time: Wednesday, May 29, 2024 9:09 PM EDT

Current weather – Weather history – Daily summaries
Weather forecast

Temperature15.1°C (59.2°F)
Dew point10.5°C (50.9°F)
Winds 15 kts (7.7 m/s, 17.3 mph) South-Southwest (200°)
Visibility10 mi. (16.1 km)
Clouds Ceiling: Overcast 2,500 ft. (762 m)
Altimeter29.82 in.Hg (1010 mB)
Relative humidity74 %
Density altitude284 ft. (87 m)
Sea-level pressure101.1 kPa (1011 mB, 29.84 in.Hg)
Remarks Fully automated report
System requires maintenance
Automated weather observing station with precipitation discriminator
Ceiling
Flight conditions Marginal Visual Meteorological Conditions
Raw dataKADW 272155Z AUTO 20015KT 10SM OVC025 15/11 A2982 RMK AO2 CIG 024 RWY19L SLP105 T01510105 $
An error has occurred. This application may no longer respond until reloaded. Reload 🗙